EEN weather

Dillant Hopkins Airport
Keene, New Hampshire, United States

Public forecast

Using degrees Fahrenheit for public forecast. Weather courtesy of forecast.io.

Current aviation weather report (METAR) for Dillant Hopkins Airport

Retrieved 2019/10/23 03:31 UTC (9 minutes ago):

KEEN 230331Z AUTO 31005KT 10SM -RA OVC014 12/11 A2988 RMK AO2 P0003

Closest aviation forecast (TAF) to Dillant Hopkins Airport

Closest forecast is Manchester-Boston Regional Airport, 36.8 nm (68.1 km) E. Retrieved 2019-10-23 00:21 UTC (3 hours ago):

TAF KMHT 222320Z 2300/2324 09010KT P6SM OVC008 FM230200 08009KT 3SM -DZ OVC008 FM230500 08007KT 2SM RA BR OVC004 FM231200 30010G17KT P6SM SCT015 BKN100